sensor_id;sensor_type;location;lat;lon;timestamp;P1;durP1;ratioP1;P2;durP2;ratioP2
3795;SDS011;1913;50.660;7.834;2023-04-16T00:00:40;117.97;;;27.43;;
3795;SDS011;1913;50.660;7.834;2023-04-16T00:03:06;131.80;;;30.10;;
3795;SDS011;1913;50.660;7.834;2023-04-16T00:05:31;163.67;;;30.23;;
3795;SDS011;1913;50.660;7.834;2023-04-16T00:07:56;151.57;;;31.13;;
3795;SDS011;1913;50.660;7.834;2023-04-16T00:10:22;90.83;;;24.60;;
3795;SDS011;1913;50.660;7.834;2023-04-16T00:12:47;497.37;;;51.97;;
3795;SDS011;1913;50.660;7.834;2023-04-16T00:15:13;348.00;;;38.87;;
3795;SDS011;1913;50.660;7.834;2023-04-16T00:17:38;269.63;;;33.90;;
3795;SDS011;1913;50.660;7.834;2023-04-16T00:20:04;211.43;;;31.67;;
3795;SDS011;1913;50.660;7.834;2023-04-16T00:22:30;291.87;;;38.63;;
3795;SDS011;1913;50.660;7.834;2023-04-16T00:24:55;382.70;;;40.23;;
3795;SDS011;1913;50.660;7.834;2023-04-16T00:27:21;531.63;;;49.43;;
3795;SDS011;1913;50.660;7.834;2023-04-16T00:29:46;540.67;;;54.20;;
3795;SDS011;1913;50.660;7.834;2023-04-16T00:32:12;381.33;;;40.30;;
3795;SDS011;1913;50.660;7.834;2023-04-16T00:34:37;312.07;;;39.33;;
3795;SDS011;1913;50.660;7.834;2023-04-16T00:37:03;276.17;;;37.63;;
3795;SDS011;1913;50.660;7.834;2023-04-16T00:39:28;232.77;;;34.73;;
3795;SDS011;1913;50.660;7.834;2023-04-16T00:41:53;159.93;;;33.33;;
3795;SDS011;1913;50.660;7.834;2023-04-16T00:44:19;213.47;;;34.43;;
3795;SDS011;1913;50.660;7.834;2023-04-16T00:46:45;288.17;;;35.07;;
3795;SDS011;1913;50.660;7.834;2023-04-16T00:49:10;424.27;;;47.83;;
3795;SDS011;1913;50.660;7.834;2023-04-16T00:51:36;297.20;;;37.60;;
3795;SDS011;1913;50.660;7.834;2023-04-16T00:54:02;366.60;;;40.50;;
3795;SDS011;1913;50.660;7.834;2023-04-16T00:56:28;702.53;;;64.13;;
3795;SDS011;1913;50.660;7.834;2023-04-16T00:58:56;554.87;;;56.50;;
3795;SDS011;1913;50.660;7.834;2023-04-16T01:01:21;809.50;;;76.90;;
3795;SDS011;1913;50.660;7.834;2023-04-16T01:03:47;373.17;;;40.63;;
3795;SDS011;1913;50.660;7.834;2023-04-16T01:06:14;553.70;;;53.50;;
3795;SDS011;1913;50.660;7.834;2023-04-16T01:08:42;460.00;;;45.97;;
3795;SDS011;1913;50.660;7.834;2023-04-16T01:11:08;592.90;;;57.10;;
3795;SDS011;1913;50.660;7.834;2023-04-16T01:13:35;744.10;;;62.10;;
3795;SDS011;1913;50.660;7.834;2023-04-16T01:16:04;485.33;;;47.00;;
3795;SDS011;1913;50.660;7.834;2023-04-16T01:18:35;641.83;;;57.93;;
3795;SDS011;1913;50.660;7.834;2023-04-16T01:21:01;328.67;;;36.83;;
3795;SDS011;1913;50.660;7.834;2023-04-16T01:23:28;334.90;;;38.37;;
3795;SDS011;1913;50.660;7.834;2023-04-16T01:25:53;558.77;;;50.23;;
3795;SDS011;1913;50.660;7.834;2023-04-16T01:28:19;512.37;;;49.50;;
3795;SDS011;1913;50.660;7.834;2023-04-16T01:30:45;666.97;;;64.30;;
3795;SDS011;1913;50.660;7.834;2023-04-16T01:33:10;416.73;;;41.93;;
3795;SDS011;1913;50.660;7.834;2023-04-16T01:35:37;405.43;;;43.90;;
3795;SDS011;1913;50.660;7.834;2023-04-16T01:38:03;236.57;;;35.80;;
3795;SDS011;1913;50.660;7.834;2023-04-16T01:40:30;400.50;;;44.77;;
3795;SDS011;1913;50.660;7.834;2023-04-16T01:42:55;551.67;;;50.07;;
3795;SDS011;1913;50.660;7.834;2023-04-16T01:45:20;495.97;;;48.10;;
3795;SDS011;1913;50.660;7.834;2023-04-16T01:47:46;761.10;;;68.60;;
3795;SDS011;1913;50.660;7.834;2023-04-16T01:50:13;213.50;;;33.87;;
3795;SDS011;1913;50.660;7.834;2023-04-16T01:52:39;857.67;;;76.30;;
3795;SDS011;1913;50.660;7.834;2023-04-16T01:55:04;868.23;;;80.47;;
3795;SDS011;1913;50.660;7.834;2023-04-16T01:57:30;869.70;;;76.97;;
3795;SDS011;1913;50.660;7.834;2023-04-16T01:59:57;724.83;;;65.90;;
3795;SDS011;1913;50.660;7.834;2023-04-16T02:02:22;432.97;;;51.37;;
3795;SDS011;1913;50.660;7.834;2023-04-16T02:04:53;624.90;;;59.43;;
3795;SDS011;1913;50.660;7.834;2023-04-16T02:07:18;546.30;;;50.00;;
3795;SDS011;1913;50.660;7.834;2023-04-16T02:09:44;416.63;;;42.40;;
3795;SDS011;1913;50.660;7.834;2023-04-16T02:12:09;666.03;;;57.77;;
3795;SDS011;1913;50.660;7.834;2023-04-16T02:14:36;978.60;;;92.97;;
3795;SDS011;1913;50.660;7.834;2023-04-16T02:17:01;838.63;;;73.57;;
3795;SDS011;1913;50.660;7.834;2023-04-16T02:19:27;743.70;;;75.57;;
3795;SDS011;1913;50.660;7.834;2023-04-16T02:21:53;813.30;;;76.17;;
3795;SDS011;1913;50.660;7.834;2023-04-16T02:24:19;1081.00;;;92.57;;
3795;SDS011;1913;50.660;7.834;2023-04-16T02:26:44;369.53;;;40.43;;
3795;SDS011;1913;50.660;7.834;2023-04-16T02:29:10;1033.43;;;94.73;;
3795;SDS011;1913;50.660;7.834;2023-04-16T02:31:36;1006.90;;;87.97;;
3795;SDS011;1913;50.660;7.834;2023-04-16T02:34:02;739.93;;;68.70;;
3795;SDS011;1913;50.660;7.834;2023-04-16T02:36:28;711.33;;;68.07;;
3795;SDS011;1913;50.660;7.834;2023-04-16T02:38:54;1014.40;;;95.13;;
3795;SDS011;1913;50.660;7.834;2023-04-16T02:41:19;654.27;;;61.47;;
3795;SDS011;1913;50.660;7.834;2023-04-16T02:43:45;640.57;;;60.83;;
3795;SDS011;1913;50.660;7.834;2023-04-16T02:46:10;383.33;;;45.37;;
3795;SDS011;1913;50.660;7.834;2023-04-16T02:48:35;916.87;;;81.50;;
3795;SDS011;1913;50.660;7.834;2023-04-16T02:51:01;873.77;;;81.03;;
3795;SDS011;1913;50.660;7.834;2023-04-16T02:53:26;661.43;;;66.30;;
3795;SDS011;1913;50.660;7.834;2023-04-16T02:55:52;431.20;;;46.97;;
3795;SDS011;1913;50.660;7.834;2023-04-16T02:58:19;678.07;;;68.33;;
3795;SDS011;1913;50.660;7.834;2023-04-16T03:00:46;847.43;;;81.77;;
3795;SDS011;1913;50.660;7.834;2023-04-16T03:03:11;667.63;;;59.50;;
3795;SDS011;1913;50.660;7.834;2023-04-16T03:05:37;944.67;;;85.60;;
3795;SDS011;1913;50.660;7.834;2023-04-16T03:08:02;598.27;;;55.97;;
3795;SDS011;1913;50.660;7.834;2023-04-16T03:10:28;420.17;;;54.90;;
3795;SDS011;1913;50.660;7.834;2023-04-16T03:12:54;618.37;;;62.73;;
3795;SDS011;1913;50.660;7.834;2023-04-16T03:15:19;642.67;;;64.67;;
3795;SDS011;1913;50.660;7.834;2023-04-16T03:17:45;479.27;;;50.77;;
3795;SDS011;1913;50.660;7.834;2023-04-16T03:20:10;477.70;;;52.00;;
3795;SDS011;1913;50.660;7.834;2023-04-16T03:22:37;402.53;;;46.03;;
3795;SDS011;1913;50.660;7.834;2023-04-16T03:25:03;442.13;;;49.80;;
3795;SDS011;1913;50.660;7.834;2023-04-16T03:27:29;736.50;;;70.77;;
3795;SDS011;1913;50.660;7.834;2023-04-16T03:29:55;800.27;;;77.53;;
3795;SDS011;1913;50.660;7.834;2023-04-16T03:32:20;731.63;;;69.13;;
3795;SDS011;1913;50.660;7.834;2023-04-16T03:34:45;532.67;;;53.80;;
3795;SDS011;1913;50.660;7.834;2023-04-16T03:37:11;618.57;;;70.13;;
3795;SDS011;1913;50.660;7.834;2023-04-16T03:39:36;362.37;;;46.60;;
3795;SDS011;1913;50.660;7.834;2023-04-16T03:42:02;358.53;;;47.03;;
3795;SDS011;1913;50.660;7.834;2023-04-16T03:44:28;151.90;;;36.07;;
3795;SDS011;1913;50.660;7.834;2023-04-16T03:46:53;347.33;;;48.90;;
3795;SDS011;1913;50.660;7.834;2023-04-16T03:49:19;184.33;;;39.70;;
3795;SDS011;1913;50.660;7.834;2023-04-16T03:51:44;224.23;;;41.60;;
3795;SDS011;1913;50.660;7.834;2023-04-16T03:54:10;114.80;;;34.93;;
3795;SDS011;1913;50.660;7.834;2023-04-16T03:56:36;134.93;;;37.53;;
3795;SDS011;1913;50.660;7.834;2023-04-16T03:59:03;153.97;;;39.40;;
3795;SDS011;1913;50.660;7.834;2023-04-16T04:01:29;208.67;;;43.73;;
3795;SDS011;1913;50.660;7.834;2023-04-16T04:03:54;379.87;;;50.53;;
3795;SDS011;1913;50.660;7.834;2023-04-16T04:06:20;198.13;;;41.30;;
3795;SDS011;1913;50.660;7.834;2023-04-16T04:08:45;182.67;;;41.10;;
3795;SDS011;1913;50.660;7.834;2023-04-16T04:11:11;317.10;;;47.83;;
3795;SDS011;1913;50.660;7.834;2023-04-16T04:13:36;189.33;;;39.30;;
3795;SDS011;1913;50.660;7.834;2023-04-16T04:16:01;111.23;;;36.33;;
3795;SDS011;1913;50.660;7.834;2023-04-16T04:18:27;117.37;;;36.40;;
3795;SDS011;1913;50.660;7.834;2023-04-16T04:20:53;91.93;;;31.90;;
3795;SDS011;1913;50.660;7.834;2023-04-16T04:23:18;100.70;;;34.13;;
3795;SDS011;1913;50.660;7.834;2023-04-16T04:25:44;85.80;;;32.50;;
3795;SDS011;1913;50.660;7.834;2023-04-16T04:28:09;74.70;;;29.47;;
3795;SDS011;1913;50.660;7.834;2023-04-16T04:30:35;90.03;;;31.37;;
3795;SDS011;1913;50.660;7.834;2023-04-16T04:33:00;66.87;;;29.43;;
3795;SDS011;1913;50.660;7.834;2023-04-16T04:35:26;74.53;;;30.20;;
3795;SDS011;1913;50.660;7.834;2023-04-16T04:37:51;79.93;;;32.30;;
3795;SDS011;1913;50.660;7.834;2023-04-16T04:40:16;79.10;;;31.90;;
3795;SDS011;1913;50.660;7.834;2023-04-16T04:42:42;77.13;;;29.60;;
3795;SDS011;1913;50.660;7.834;2023-04-16T04:45:08;118.17;;;35.57;;
3795;SDS011;1913;50.660;7.834;2023-04-16T04:47:34;104.80;;;36.70;;
3795;SDS011;1913;50.660;7.834;2023-04-16T04:49:59;131.43;;;38.87;;
3795;SDS011;1913;50.660;7.834;2023-04-16T04:52:25;107.13;;;35.13;;
3795;SDS011;1913;50.660;7.834;2023-04-16T04:54:51;78.23;;;31.97;;
3795;SDS011;1913;50.660;7.834;2023-04-16T04:57:16;84.47;;;32.60;;
3795;SDS011;1913;50.660;7.834;2023-04-16T04:59:42;104.03;;;35.40;;
3795;SDS011;1913;50.660;7.834;2023-04-16T05:02:07;111.67;;;37.60;;
3795;SDS011;1913;50.660;7.834;2023-04-16T05:04:33;138.33;;;39.00;;
3795;SDS011;1913;50.660;7.834;2023-04-16T05:06:58;108.30;;;35.20;;
3795;SDS011;1913;50.660;7.834;2023-04-16T05:09:24;142.00;;;40.00;;
3795;SDS011;1913;50.660;7.834;2023-04-16T05:11:49;141.60;;;38.07;;
3795;SDS011;1913;50.660;7.834;2023-04-16T05:14:15;133.83;;;40.60;;
3795;SDS011;1913;50.660;7.834;2023-04-16T05:16:41;222.57;;;45.00;;
3795;SDS011;1913;50.660;7.834;2023-04-16T05:19:09;128.00;;;38.73;;
3795;SDS011;1913;50.660;7.834;2023-04-16T05:21:36;90.77;;;34.83;;
3795;SDS011;1913;50.660;7.834;2023-04-16T05:24:01;160.90;;;40.27;;
3795;SDS011;1913;50.660;7.834;2023-04-16T05:26:30;219.00;;;44.40;;
3795;SDS011;1913;50.660;7.834;2023-04-16T05:28:55;123.37;;;36.57;;
3795;SDS011;1913;50.660;7.834;2023-04-16T05:31:21;104.53;;;37.90;;
3795;SDS011;1913;50.660;7.834;2023-04-16T05:33:46;158.53;;;43.83;;
3795;SDS011;1913;50.660;7.834;2023-04-16T05:36:12;125.80;;;39.63;;
3795;SDS011;1913;50.660;7.834;2023-04-16T05:38:37;98.80;;;34.43;;
3795;SDS011;1913;50.660;7.834;2023-04-16T05:41:02;221.93;;;44.20;;
3795;SDS011;1913;50.660;7.834;2023-04-16T05:43:28;298.97;;;47.70;;
3795;SDS011;1913;50.660;7.834;2023-04-16T05:45:53;186.37;;;41.20;;
3795;SDS011;1913;50.660;7.834;2023-04-16T05:48:19;92.37;;;34.83;;
3795;SDS011;1913;50.660;7.834;2023-04-16T05:50:44;114.43;;;38.07;;
3795;SDS011;1913;50.660;7.834;2023-04-16T05:53:10;186.93;;;42.10;;
3795;SDS011;1913;50.660;7.834;2023-04-16T05:55:36;196.87;;;41.80;;
3795;SDS011;1913;50.660;7.834;2023-04-16T05:58:01;129.33;;;39.63;;
3795;SDS011;1913;50.660;7.834;2023-04-16T06:00:28;134.60;;;39.50;;
3795;SDS011;1913;50.660;7.834;2023-04-16T06:02:54;96.67;;;33.33;;
3795;SDS011;1913;50.660;7.834;2023-04-16T06:05:20;86.67;;;33.50;;
3795;SDS011;1913;50.660;7.834;2023-04-16T06:07:45;140.00;;;39.33;;
3795;SDS011;1913;50.660;7.834;2023-04-16T06:10:11;88.33;;;33.40;;
3795;SDS011;1913;50.660;7.834;2023-04-16T06:12:36;82.57;;;31.60;;
3795;SDS011;1913;50.660;7.834;2023-04-16T06:15:02;83.83;;;33.77;;
3795;SDS011;1913;50.660;7.834;2023-04-16T06:17:28;97.57;;;34.57;;
3795;SDS011;1913;50.660;7.834;2023-04-16T06:19:53;84.53;;;33.10;;
3795;SDS011;1913;50.660;7.834;2023-04-16T06:22:19;94.80;;;34.70;;
3795;SDS011;1913;50.660;7.834;2023-04-16T06:24:44;74.57;;;30.23;;
3795;SDS011;1913;50.660;7.834;2023-04-16T06:27:10;76.50;;;29.93;;
3795;SDS011;1913;50.660;7.834;2023-04-16T06:29:36;87.10;;;31.53;;
3795;SDS011;1913;50.660;7.834;2023-04-16T06:32:01;68.43;;;30.60;;
3795;SDS011;1913;50.660;7.834;2023-04-16T06:34:27;75.57;;;30.83;;
3795;SDS011;1913;50.660;7.834;2023-04-16T06:36:54;78.53;;;30.47;;
3795;SDS011;1913;50.660;7.834;2023-04-16T06:39:19;64.17;;;29.17;;
3795;SDS011;1913;50.660;7.834;2023-04-16T06:41:47;66.43;;;30.00;;
3795;SDS011;1913;50.660;7.834;2023-04-16T06:44:13;78.07;;;32.60;;
3795;SDS011;1913;50.660;7.834;2023-04-16T06:46:39;74.27;;;29.80;;
3795;SDS011;1913;50.660;7.834;2023-04-16T06:49:05;76.27;;;31.20;;
3795;SDS011;1913;50.660;7.834;2023-04-16T06:51:31;67.37;;;29.53;;
3795;SDS011;1913;50.660;7.834;2023-04-16T06:53:57;65.43;;;28.10;;
3795;SDS011;1913;50.660;7.834;2023-04-16T06:56:23;54.30;;;28.13;;
3795;SDS011;1913;50.660;7.834;2023-04-16T06:58:49;63.20;;;28.23;;
3795;SDS011;1913;50.660;7.834;2023-04-16T07:01:15;71.10;;;30.93;;
3795;SDS011;1913;50.660;7.834;2023-04-16T07:03:41;74.27;;;30.13;;
3795;SDS011;1913;50.660;7.834;2023-04-16T07:06:06;64.00;;;30.03;;
3795;SDS011;1913;50.660;7.834;2023-04-16T07:08:32;69.33;;;30.30;;
3795;SDS011;1913;50.660;7.834;2023-04-16T07:10:57;70.83;;;30.73;;
3795;SDS011;1913;50.660;7.834;2023-04-16T07:13:23;70.40;;;29.93;;
3795;SDS011;1913;50.660;7.834;2023-04-16T07:15:49;72.83;;;32.10;;
3795;SDS011;1913;50.660;7.834;2023-04-16T07:18:14;72.30;;;31.70;;
3795;SDS011;1913;50.660;7.834;2023-04-16T07:20:40;67.93;;;31.97;;
3795;SDS011;1913;50.660;7.834;2023-04-16T07:23:06;80.20;;;35.10;;
3795;SDS011;1913;50.660;7.834;2023-04-16T07:25:31;70.30;;;32.53;;
3795;SDS011;1913;50.660;7.834;2023-04-16T07:27:57;70.67;;;31.87;;
3795;SDS011;1913;50.660;7.834;2023-04-16T07:30:22;87.03;;;32.23;;
3795;SDS011;1913;50.660;7.834;2023-04-16T07:32:47;69.50;;;31.97;;
3795;SDS011;1913;50.660;7.834;2023-04-16T07:35:13;73.77;;;31.07;;
3795;SDS011;1913;50.660;7.834;2023-04-16T07:37:39;77.30;;;33.50;;
3795;SDS011;1913;50.660;7.834;2023-04-16T07:40:04;70.37;;;31.57;;
3795;SDS011;1913;50.660;7.834;2023-04-16T07:42:31;75.00;;;34.73;;
3795;SDS011;1913;50.660;7.834;2023-04-16T07:44:56;79.13;;;34.50;;
3795;SDS011;1913;50.660;7.834;2023-04-16T07:47:21;78.00;;;34.13;;
3795;SDS011;1913;50.660;7.834;2023-04-16T07:49:47;72.10;;;32.57;;
3795;SDS011;1913;50.660;7.834;2023-04-16T07:52:14;81.07;;;33.40;;
3795;SDS011;1913;50.660;7.834;2023-04-16T07:54:39;80.73;;;33.63;;
3795;SDS011;1913;50.660;7.834;2023-04-16T07:57:05;82.40;;;34.40;;
3795;SDS011;1913;50.660;7.834;2023-04-16T07:59:30;66.30;;;33.13;;
3795;SDS011;1913;50.660;7.834;2023-04-16T08:01:55;81.27;;;34.73;;
3795;SDS011;1913;50.660;7.834;2023-04-16T08:04:25;73.83;;;33.60;;
3795;SDS011;1913;50.660;7.834;2023-04-16T08:06:53;93.17;;;37.30;;
3795;SDS011;1913;50.660;7.834;2023-04-16T08:09:19;81.47;;;34.37;;
3795;SDS011;1913;50.660;7.834;2023-04-16T08:11:45;76.53;;;34.30;;
3795;SDS011;1913;50.660;7.834;2023-04-16T08:14:15;77.40;;;34.33;;
3795;SDS011;1913;50.660;7.834;2023-04-16T08:16:41;75.60;;;34.27;;
3795;SDS011;1913;50.660;7.834;2023-04-16T08:19:06;83.37;;;34.77;;
3795;SDS011;1913;50.660;7.834;2023-04-16T08:21:32;79.53;;;33.60;;
3795;SDS011;1913;50.660;7.834;2023-04-16T08:23:58;92.60;;;36.00;;
3795;SDS011;1913;50.660;7.834;2023-04-16T08:26:23;81.37;;;36.20;;
3795;SDS011;1913;50.660;7.834;2023-04-16T08:28:49;84.83;;;37.23;;
3795;SDS011;1913;50.660;7.834;2023-04-16T08:31:15;95.33;;;38.33;;
3795;SDS011;1913;50.660;7.834;2023-04-16T08:33:40;95.83;;;38.83;;
3795;SDS011;1913;50.660;7.834;2023-04-16T08:36:05;89.70;;;38.37;;
3795;SDS011;1913;50.660;7.834;2023-04-16T08:38:31;86.90;;;37.03;;
3795;SDS011;1913;50.660;7.834;2023-04-16T08:40:57;98.97;;;39.10;;
3795;SDS011;1913;50.660;7.834;2023-04-16T08:43:27;90.10;;;37.50;;
3795;SDS011;1913;50.660;7.834;2023-04-16T08:46:00;112.70;;;40.23;;
3795;SDS011;1913;50.660;7.834;2023-04-16T08:48:27;109.57;;;41.00;;
3795;SDS011;1913;50.660;7.834;2023-04-16T08:50:56;101.40;;;37.53;;
3795;SDS011;1913;50.660;7.834;2023-04-16T08:54:11;88.67;;;38.03;;
3795;SDS011;1913;50.660;7.834;2023-04-16T08:56:16;78.07;;;36.53;;
3795;SDS011;1913;50.660;7.834;2023-04-16T08:58:45;84.30;;;37.50;;
3795;SDS011;1913;50.660;7.834;2023-04-16T09:01:15;115.30;;;40.50;;
3795;SDS011;1913;50.660;7.834;2023-04-16T09:03:44;91.80;;;38.20;;
3795;SDS011;1913;50.660;7.834;2023-04-16T09:06:11;87.97;;;39.03;;
3795;SDS011;1913;50.660;7.834;2023-04-16T09:08:37;100.07;;;38.87;;
3795;SDS011;1913;50.660;7.834;2023-04-16T09:11:03;94.50;;;38.30;;
3795;SDS011;1913;50.660;7.834;2023-04-16T09:13:30;81.13;;;36.57;;
3795;SDS011;1913;50.660;7.834;2023-04-16T09:15:56;88.50;;;36.50;;
3795;SDS011;1913;50.660;7.834;2023-04-16T09:18:22;90.73;;;36.73;;
3795;SDS011;1913;50.660;7.834;2023-04-16T09:20:48;84.20;;;37.20;;
3795;SDS011;1913;50.660;7.834;2023-04-16T09:23:15;77.77;;;36.53;;
3795;SDS011;1913;50.660;7.834;2023-04-16T09:25:41;75.97;;;33.93;;
3795;SDS011;1913;50.660;7.834;2023-04-16T09:28:07;75.13;;;36.23;;
3795;SDS011;1913;50.660;7.834;2023-04-16T09:30:33;77.83;;;35.17;;
3795;SDS011;1913;50.660;7.834;2023-04-16T09:33:17;70.37;;;34.20;;
3795;SDS011;1913;50.660;7.834;2023-04-16T09:35:50;67.47;;;34.17;;
3795;SDS011;1913;50.660;7.834;2023-04-16T09:38:17;72.23;;;33.47;;
3795;SDS011;1913;50.660;7.834;2023-04-16T09:40:43;75.07;;;34.87;;
3795;SDS011;1913;50.660;7.834;2023-04-16T09:45:49;73.93;;;34.80;;
3795;SDS011;1913;50.660;7.834;2023-04-16T09:50:55;63.40;;;32.13;;
3795;SDS011;1913;50.660;7.834;2023-04-16T09:53:24;72.77;;;35.57;;
3795;SDS011;1913;50.660;7.834;2023-04-16T09:55:54;61.20;;;31.97;;
3795;SDS011;1913;50.660;7.834;2023-04-16T09:58:24;55.70;;;31.17;;
3795;SDS011;1913;50.660;7.834;2023-04-16T10:01:00;62.50;;;30.50;;
3795;SDS011;1913;50.660;7.834;2023-04-16T10:03:36;56.43;;;30.50;;
3795;SDS011;1913;50.660;7.834;2023-04-16T10:06:07;57.47;;;29.97;;
3795;SDS011;1913;50.660;7.834;2023-04-16T10:08:41;53.17;;;30.30;;
3795;SDS011;1913;50.660;7.834;2023-04-16T10:11:14;51.20;;;27.13;;
3795;SDS011;1913;50.660;7.834;2023-04-16T10:13:43;49.13;;;28.13;;
3795;SDS011;1913;50.660;7.834;2023-04-16T10:16:09;50.37;;;26.67;;
3795;SDS011;1913;50.660;7.834;2023-04-16T10:18:39;45.87;;;26.17;;
3795;SDS011;1913;50.660;7.834;2023-04-16T10:21:06;44.93;;;25.97;;
3795;SDS011;1913;50.660;7.834;2023-04-16T10:23:32;51.03;;;28.17;;
3795;SDS011;1913;50.660;7.834;2023-04-16T10:25:59;50.13;;;27.07;;
3795;SDS011;1913;50.660;7.834;2023-04-16T10:28:25;45.90;;;26.57;;
3795;SDS011;1913;50.660;7.834;2023-04-16T10:30:53;43.67;;;27.03;;
3795;SDS011;1913;50.660;7.834;2023-04-16T10:33:22;37.47;;;25.10;;
3795;SDS011;1913;50.660;7.834;2023-04-16T10:36:09;42.50;;;24.10;;
3795;SDS011;1913;50.660;7.834;2023-04-16T10:38:37;41.93;;;23.57;;
3795;SDS011;1913;50.660;7.834;2023-04-16T10:41:04;40.93;;;25.50;;
3795;SDS011;1913;50.660;7.834;2023-04-16T10:43:42;42.80;;;24.90;;
3795;SDS011;1913;50.660;7.834;2023-04-16T10:49:01;47.10;;;25.07;;
3795;SDS011;1913;50.660;7.834;2023-04-16T10:51:34;42.43;;;24.83;;
3795;SDS011;1913;50.660;7.834;2023-04-16T10:56:42;36.13;;;23.57;;
3795;SDS011;1913;50.660;7.834;2023-04-16T10:59:09;37.80;;;24.40;;
3795;SDS011;1913;50.660;7.834;2023-04-16T11:01:35;40.40;;;24.27;;
3795;SDS011;1913;50.660;7.834;2023-04-16T11:12:15;40.10;;;24.50;;
3795;SDS011;1913;50.660;7.834;2023-04-16T11:14:46;38.37;;;23.40;;
3795;SDS011;1913;50.660;7.834;2023-04-16T11:17:13;38.00;;;23.40;;
3795;SDS011;1913;50.660;7.834;2023-04-16T11:19:38;38.90;;;21.50;;
3795;SDS011;1913;50.660;7.834;2023-04-16T11:22:06;37.60;;;21.33;;
3795;SDS011;1913;50.660;7.834;2023-04-16T11:24:32;39.70;;;21.90;;
3795;SDS011;1913;50.660;7.834;2023-04-16T11:26:58;35.70;;;22.87;;
3795;SDS011;1913;50.660;7.834;2023-04-16T11:29:23;37.90;;;23.57;;
3795;SDS011;1913;50.660;7.834;2023-04-16T11:31:49;35.27;;;22.57;;
3795;SDS011;1913;50.660;7.834;2023-04-16T11:34:15;36.53;;;22.10;;
3795;SDS011;1913;50.660;7.834;2023-04-16T11:36:46;38.27;;;22.57;;
3795;SDS011;1913;50.660;7.834;2023-04-16T11:39:13;37.07;;;22.60;;
3795;SDS011;1913;50.660;7.834;2023-04-16T11:41:45;38.83;;;20.67;;
3795;SDS011;1913;50.660;7.834;2023-04-16T11:44:30;35.00;;;21.90;;
3795;SDS011;1913;50.660;7.834;2023-04-16T11:46:55;35.70;;;22.90;;
3795;SDS011;1913;50.660;7.834;2023-04-16T11:49:30;39.17;;;23.90;;
3795;SDS011;1913;50.660;7.834;2023-04-16T11:51:56;38.03;;;23.30;;
3795;SDS011;1913;50.660;7.834;2023-04-16T11:54:23;51.30;;;24.27;;
3795;SDS011;1913;50.660;7.834;2023-04-16T11:56:50;34.50;;;23.50;;
3795;SDS011;1913;50.660;7.834;2023-04-16T11:59:17;39.10;;;23.17;;
3795;SDS011;1913;50.660;7.834;2023-04-16T12:01:45;39.20;;;23.07;;
3795;SDS011;1913;50.660;7.834;2023-04-16T12:04:12;35.63;;;22.63;;
3795;SDS011;1913;50.660;7.834;2023-04-16T12:06:40;39.57;;;22.13;;
3795;SDS011;1913;50.660;7.834;2023-04-16T12:09:25;30.97;;;19.37;;
3795;SDS011;1913;50.660;7.834;2023-04-16T12:11:53;30.20;;;20.20;;
3795;SDS011;1913;50.660;7.834;2023-04-16T12:14:19;29.40;;;19.80;;
3795;SDS011;1913;50.660;7.834;2023-04-16T12:16:45;31.20;;;18.77;;
3795;SDS011;1913;50.660;7.834;2023-04-16T12:19:14;27.93;;;18.23;;
3795;SDS011;1913;50.660;7.834;2023-04-16T12:24:07;30.70;;;20.10;;
3795;SDS011;1913;50.660;7.834;2023-04-16T12:26:35;32.47;;;21.77;;
3795;SDS011;1913;50.660;7.834;2023-04-16T12:31:43;27.33;;;18.20;;
3795;SDS011;1913;50.660;7.834;2023-04-16T12:34:09;25.70;;;17.53;;
3795;SDS011;1913;50.660;7.834;2023-04-16T12:36:35;26.13;;;16.97;;
3795;SDS011;1913;50.660;7.834;2023-04-16T12:39:01;26.87;;;16.10;;
3795;SDS011;1913;50.660;7.834;2023-04-16T12:41:27;29.80;;;17.87;;
3795;SDS011;1913;50.660;7.834;2023-04-16T12:44:38;25.70;;;18.37;;
3795;SDS011;1913;50.660;7.834;2023-04-16T12:46:42;29.50;;;18.53;;
3795;SDS011;1913;50.660;7.834;2023-04-16T12:49:09;29.60;;;18.97;;
3795;SDS011;1913;50.660;7.834;2023-04-16T12:51:35;30.47;;;19.03;;
3795;SDS011;1913;50.660;7.834;2023-04-16T12:54:03;26.87;;;18.50;;
3795;SDS011;1913;50.660;7.834;2023-04-16T12:56:30;27.73;;;18.13;;
3795;SDS011;1913;50.660;7.834;2023-04-16T12:58:55;23.50;;;16.33;;
3795;SDS011;1913;50.660;7.834;2023-04-16T13:01:21;24.57;;;16.27;;
3795;SDS011;1913;50.660;7.834;2023-04-16T13:03:47;27.60;;;17.00;;
3795;SDS011;1913;50.660;7.834;2023-04-16T13:06:13;26.60;;;17.10;;
3795;SDS011;1913;50.660;7.834;2023-04-16T13:08:40;25.57;;;15.80;;
3795;SDS011;1913;50.660;7.834;2023-04-16T13:11:07;30.23;;;16.43;;
3795;SDS011;1913;50.660;7.834;2023-04-16T13:13:32;22.20;;;14.07;;
3795;SDS011;1913;50.660;7.834;2023-04-16T13:15:58;23.07;;;14.90;;
3795;SDS011;1913;50.660;7.834;2023-04-16T13:18:24;22.40;;;14.80;;
3795;SDS011;1913;50.660;7.834;2023-04-16T13:20:51;21.20;;;14.73;;
3795;SDS011;1913;50.660;7.834;2023-04-16T13:23:17;19.80;;;14.40;;
3795;SDS011;1913;50.660;7.834;2023-04-16T13:25:43;18.80;;;13.63;;
3795;SDS011;1913;50.660;7.834;2023-04-16T13:28:08;24.33;;;14.67;;
3795;SDS011;1913;50.660;7.834;2023-04-16T13:30:34;21.07;;;14.40;;
3795;SDS011;1913;50.660;7.834;2023-04-16T13:33:00;22.60;;;15.27;;
3795;SDS011;1913;50.660;7.834;2023-04-16T13:35:25;22.90;;;14.70;;
3795;SDS011;1913;50.660;7.834;2023-04-16T13:37:51;20.13;;;13.67;;
3795;SDS011;1913;50.660;7.834;2023-04-16T13:40:17;20.37;;;13.63;;
3795;SDS011;1913;50.660;7.834;2023-04-16T13:42:42;18.60;;;13.70;;
3795;SDS011;1913;50.660;7.834;2023-04-16T13:45:08;22.83;;;14.10;;
3795;SDS011;1913;50.660;7.834;2023-04-16T13:47:33;19.90;;;13.17;;
3795;SDS011;1913;50.660;7.834;2023-04-16T13:49:59;17.30;;;12.03;;
3795;SDS011;1913;50.660;7.834;2023-04-16T13:52:25;20.47;;;13.00;;
3795;SDS011;1913;50.660;7.834;2023-04-16T13:54:50;19.73;;;13.07;;
3795;SDS011;1913;50.660;7.834;2023-04-16T13:57:16;18.90;;;13.13;;
3795;SDS011;1913;50.660;7.834;2023-04-16T13:59:42;17.57;;;13.43;;
3795;SDS011;1913;50.660;7.834;2023-04-16T14:02:08;17.83;;;12.40;;
3795;SDS011;1913;50.660;7.834;2023-04-16T14:04:34;18.27;;;12.97;;
3795;SDS011;1913;50.660;7.834;2023-04-16T14:07:00;20.20;;;13.23;;
3795;SDS011;1913;50.660;7.834;2023-04-16T14:09:25;23.20;;;14.60;;
3795;SDS011;1913;50.660;7.834;2023-04-16T14:11:51;20.37;;;13.27;;
3795;SDS011;1913;50.660;7.834;2023-04-16T14:14:16;20.13;;;13.80;;
3795;SDS011;1913;50.660;7.834;2023-04-16T14:16:42;20.00;;;13.47;;
3795;SDS011;1913;50.660;7.834;2023-04-16T14:19:08;16.80;;;12.87;;
3795;SDS011;1913;50.660;7.834;2023-04-16T14:21:34;23.60;;;13.47;;
3795;SDS011;1913;50.660;7.834;2023-04-16T14:24:00;19.93;;;13.77;;
3795;SDS011;1913;50.660;7.834;2023-04-16T14:26:25;21.10;;;13.83;;
3795;SDS011;1913;50.660;7.834;2023-04-16T14:28:50;21.90;;;13.77;;
3795;SDS011;1913;50.660;7.834;2023-04-16T14:31:16;17.90;;;13.47;;
3795;SDS011;1913;50.660;7.834;2023-04-16T14:33:42;20.47;;;13.70;;
3795;SDS011;1913;50.660;7.834;2023-04-16T14:36:08;21.83;;;14.37;;
3795;SDS011;1913;50.660;7.834;2023-04-16T14:38:34;23.67;;;15.40;;
3795;SDS011;1913;50.660;7.834;2023-04-16T14:40:59;23.80;;;15.70;;
3795;SDS011;1913;50.660;7.834;2023-04-16T14:43:25;23.67;;;15.50;;
3795;SDS011;1913;50.660;7.834;2023-04-16T14:45:51;24.93;;;16.57;;
3795;SDS011;1913;50.660;7.834;2023-04-16T14:48:17;25.33;;;16.90;;
3795;SDS011;1913;50.660;7.834;2023-04-16T14:50:42;24.87;;;16.50;;
3795;SDS011;1913;50.660;7.834;2023-04-16T14:53:09;27.40;;;17.60;;
3795;SDS011;1913;50.660;7.834;2023-04-16T14:55:35;28.63;;;16.60;;
3795;SDS011;1913;50.660;7.834;2023-04-16T14:58:01;23.77;;;16.53;;
3795;SDS011;1913;50.660;7.834;2023-04-16T15:00:27;27.70;;;17.67;;
3795;SDS011;1913;50.660;7.834;2023-04-16T15:02:53;28.10;;;17.70;;